sensor_id;sensor_type;location;lat;lon;timestamp;temperature;humidity
49821;DHT22;36893;52.520;13.450;2022-07-10T00:08:12;25.50;59.50
49821;DHT22;36893;52.520;13.450;2022-07-10T00:18:13;25.50;59.50
49821;DHT22;36893;52.520;13.450;2022-07-10T00:28:13;25.50;59.50
49821;DHT22;36893;52.520;13.450;2022-07-10T00:38:14;25.50;59.50
49821;DHT22;36893;52.520;13.450;2022-07-10T00:48:15;25.50;59.40
49821;DHT22;36893;52.520;13.450;2022-07-10T00:58:15;25.50;59.40
49821;DHT22;36893;52.520;13.450;2022-07-10T01:08:16;25.50;59.40
49821;DHT22;36893;52.520;13.450;2022-07-10T01:18:17;25.50;59.30
49821;DHT22;36893;52.520;13.450;2022-07-10T01:28:20;25.50;59.30
49821;DHT22;36893;52.520;13.450;2022-07-10T01:38:21;25.50;59.20
49821;DHT22;36893;52.520;13.450;2022-07-10T01:48:21;25.50;59.20
49821;DHT22;36893;52.520;13.450;2022-07-10T01:58:22;25.40;59.10
49821;DHT22;36893;52.520;13.450;2022-07-10T02:08:23;25.40;59.10
49821;DHT22;36893;52.520;13.450;2022-07-10T02:18:24;25.40;59.10
49821;DHT22;36893;52.520;13.450;2022-07-10T02:28:25;25.50;59.10
49821;DHT22;36893;52.520;13.450;2022-07-10T02:38:25;25.40;59.00
49821;DHT22;36893;52.520;13.450;2022-07-10T02:48:28;25.40;59.00
49821;DHT22;36893;52.520;13.450;2022-07-10T02:58:28;25.40;58.90
49821;DHT22;36893;52.520;13.450;2022-07-10T03:08:29;25.40;58.90
49821;DHT22;36893;52.520;13.450;2022-07-10T03:18:30;25.40;58.90
49821;DHT22;36893;52.520;13.450;2022-07-10T03:28:30;25.40;58.90
49821;DHT22;36893;52.520;13.450;2022-07-10T03:38:31;25.40;58.80
49821;DHT22;36893;52.520;13.450;2022-07-10T03:48:32;25.40;58.80
49821;DHT22;36893;52.520;13.450;2022-07-10T03:58:33;25.40;58.70
49821;DHT22;36893;52.520;13.450;2022-07-10T04:08:34;25.40;58.70
49821;DHT22;36893;52.520;13.450;2022-07-10T04:18:35;25.40;58.70
49821;DHT22;36893;52.520;13.450;2022-07-10T04:28:35;25.40;58.70
49821;DHT22;36893;52.520;13.450;2022-07-10T04:38:36;25.40;58.70
49821;DHT22;36893;52.520;13.450;2022-07-10T04:48:37;25.40;58.70
49821;DHT22;36893;52.520;13.450;2022-07-10T04:58:37;25.40;58.70
49821;DHT22;36893;52.520;13.450;2022-07-10T05:08:38;25.40;58.60
49821;DHT22;36893;52.520;13.450;2022-07-10T05:18:39;25.30;58.60
49821;DHT22;36893;52.520;13.450;2022-07-10T05:28:40;25.40;58.60
49821;DHT22;36893;52.520;13.450;2022-07-10T05:38:40;25.30;59.20
49821;DHT22;36893;52.520;13.450;2022-07-10T05:48:41;25.30;58.60
49821;DHT22;36893;52.520;13.450;2022-07-10T05:58:42;25.30;58.60
49821;DHT22;36893;52.520;13.450;2022-07-10T06:08:43;25.30;58.60
49821;DHT22;36893;52.520;13.450;2022-07-10T06:18:44;25.30;58.60
49821;DHT22;36893;52.520;13.450;2022-07-10T06:28:45;25.30;58.60
49821;DHT22;36893;52.520;13.450;2022-07-10T06:38:45;25.30;58.60
49821;DHT22;36893;52.520;13.450;2022-07-10T06:48:46;25.30;58.50
49821;DHT22;36893;52.520;13.450;2022-07-10T06:58:47;25.30;58.60
49821;DHT22;36893;52.520;13.450;2022-07-10T07:08:48;25.30;58.50
49821;DHT22;36893;52.520;13.450;2022-07-10T07:18:48;25.30;58.50
49821;DHT22;36893;52.520;13.450;2022-07-10T07:28:52;25.30;58.50
49821;DHT22;36893;52.520;13.450;2022-07-10T07:38:53;25.30;58.50
49821;DHT22;36893;52.520;13.450;2022-07-10T07:48:53;25.30;58.50
49821;DHT22;36893;52.520;13.450;2022-07-10T07:58:54;25.30;58.40
49821;DHT22;36893;52.520;13.450;2022-07-10T08:08:55;25.40;58.50
49821;DHT22;36893;52.520;13.450;2022-07-10T08:18:55;25.40;58.50
49821;DHT22;36893;52.520;13.450;2022-07-10T08:28:56;25.40;58.40
49821;DHT22;36893;52.520;13.450;2022-07-10T08:38:56;25.40;58.40
49821;DHT22;36893;52.520;13.450;2022-07-10T08:48:59;25.40;58.30
49821;DHT22;36893;52.520;13.450;2022-07-10T08:59:02;25.40;58.40
49821;DHT22;36893;52.520;13.450;2022-07-10T09:09:06;25.40;58.40
49821;DHT22;36893;52.520;13.450;2022-07-10T09:19:27;25.40;58.30
49821;DHT22;36893;52.520;13.450;2022-07-10T09:29:30;25.40;58.30
49821;DHT22;36893;52.520;13.450;2022-07-10T09:39:32;25.40;58.30
49821;DHT22;36893;52.520;13.450;2022-07-10T09:49:33;25.40;58.20
49821;DHT22;36893;52.520;13.450;2022-07-10T09:59:35;25.40;58.20
49821;DHT22;36893;52.520;13.450;2022-07-10T10:09:48;25.40;58.20
49821;DHT22;36893;52.520;13.450;2022-07-10T10:19:54;25.40;58.20
49821;DHT22;36893;52.520;13.450;2022-07-10T10:30:14;25.40;58.20
49821;DHT22;36893;52.520;13.450;2022-07-10T10:40:33;25.40;58.20
49821;DHT22;36893;52.520;13.450;2022-07-10T10:50:51;25.40;58.20
49821;DHT22;36893;52.520;13.450;2022-07-10T11:01:23;25.40;58.20
49821;DHT22;36893;52.520;13.450;2022-07-10T11:21:45;25.40;58.10
49821;DHT22;36893;52.520;13.450;2022-07-10T11:31:53;25.40;58.10
49821;DHT22;36893;52.520;13.450;2022-07-10T11:41:54;25.40;58.00
49821;DHT22;36893;52.520;13.450;2022-07-10T11:52:01;25.50;58.10
49821;DHT22;36893;52.520;13.450;2022-07-10T12:02:03;25.50;58.00
49821;DHT22;36893;52.520;13.450;2022-07-10T12:12:06;25.50;57.90
49821;DHT22;36893;52.520;13.450;2022-07-10T12:22:07;25.50;57.90
49821;DHT22;36893;52.520;13.450;2022-07-10T12:32:08;25.60;57.90
49821;DHT22;36893;52.520;13.450;2022-07-10T12:42:08;25.60;57.90
49821;DHT22;36893;52.520;13.450;2022-07-10T12:52:19;25.60;57.90
49821;DHT22;36893;52.520;13.450;2022-07-10T13:02:21;25.60;57.90
49821;DHT22;36893;52.520;13.450;2022-07-10T13:12:22;25.60;57.90
49821;DHT22;36893;52.520;13.450;2022-07-10T13:22:22;25.60;57.80
49821;DHT22;36893;52.520;13.450;2022-07-10T13:32:23;25.60;57.90
49821;DHT22;36893;52.520;13.450;2022-07-10T13:42:25;25.60;57.80
49821;DHT22;36893;52.520;13.450;2022-07-10T13:52:25;25.60;57.80
49821;DHT22;36893;52.520;13.450;2022-07-10T14:02:26;25.60;57.80
49821;DHT22;36893;52.520;13.450;2022-07-10T14:12:27;25.60;57.70
49821;DHT22;36893;52.520;13.450;2022-07-10T14:22:28;25.60;57.70
49821;DHT22;36893;52.520;13.450;2022-07-10T14:32:28;25.60;57.80
49821;DHT22;36893;52.520;13.450;2022-07-10T14:42:29;25.60;57.70
49821;DHT22;36893;52.520;13.450;2022-07-10T14:52:30;25.60;57.70
49821;DHT22;36893;52.520;13.450;2022-07-10T15:02:32;25.60;57.70
49821;DHT22;36893;52.520;13.450;2022-07-10T15:12:32;25.50;57.70
49821;DHT22;36893;52.520;13.450;2022-07-10T15:22:35;25.50;57.70
49821;DHT22;36893;52.520;13.450;2022-07-10T15:32:36;25.50;57.70
49821;DHT22;36893;52.520;13.450;2022-07-10T15:42:36;25.60;57.70
49821;DHT22;36893;52.520;13.450;2022-07-10T15:52:37;25.50;57.70
49821;DHT22;36893;52.520;13.450;2022-07-10T16:02:38;25.50;58.30
49821;DHT22;36893;52.520;13.450;2022-07-10T16:12:39;25.50;57.70
49821;DHT22;36893;52.520;13.450;2022-07-10T16:22:39;25.50;57.70
49821;DHT22;36893;52.520;13.450;2022-07-10T16:32:40;25.50;57.70
49821;DHT22;36893;52.520;13.450;2022-07-10T16:42:41;25.50;57.70
49821;DHT22;36893;52.520;13.450;2022-07-10T16:52:41;25.50;57.70
49821;DHT22;36893;52.520;13.450;2022-07-10T17:02:42;25.50;57.60
49821;DHT22;36893;52.520;13.450;2022-07-10T17:12:43;25.50;57.70
49821;DHT22;36893;52.520;13.450;2022-07-10T17:22:44;25.50;57.60
49821;DHT22;36893;52.520;13.450;2022-07-10T17:32:46;25.50;57.60
49821;DHT22;36893;52.520;13.450;2022-07-10T17:42:46;25.50;57.60
49821;DHT22;36893;52.520;13.450;2022-07-10T17:52:47;25.50;57.60
49821;DHT22;36893;52.520;13.450;2022-07-10T18:02:48;25.50;57.60
49821;DHT22;36893;52.520;13.450;2022-07-10T18:12:48;25.50;57.50
49821;DHT22;36893;52.520;13.450;2022-07-10T18:22:49;25.50;57.50
49821;DHT22;36893;52.520;13.450;2022-07-10T18:32:50;25.50;57.50
49821;DHT22;36893;52.520;13.450;2022-07-10T18:43:09;25.50;57.50
49821;DHT22;36893;52.520;13.450;2022-07-10T18:53:10;25.50;57.50
49821;DHT22;36893;52.520;13.450;2022-07-10T19:03:11;25.50;57.40
49821;DHT22;36893;52.520;13.450;2022-07-10T19:13:11;25.50;57.50
49821;DHT22;36893;52.520;13.450;2022-07-10T19:23:12;25.50;57.40
49821;DHT22;36893;52.520;13.450;2022-07-10T19:33:13;25.50;57.50
49821;DHT22;36893;52.520;13.450;2022-07-10T19:43:13;25.40;57.40
49821;DHT22;36893;52.520;13.450;2022-07-10T19:53:14;25.40;57.40
49821;DHT22;36893;52.520;13.450;2022-07-10T20:03:15;25.40;57.40
49821;DHT22;36893;52.520;13.450;2022-07-10T20:13:15;25.40;57.40
49821;DHT22;36893;52.520;13.450;2022-07-10T20:23:17;25.40;57.40
49821;DHT22;36893;52.520;13.450;2022-07-10T20:33:18;25.40;57.40
49821;DHT22;36893;52.520;13.450;2022-07-10T20:43:18;25.40;57.40
49821;DHT22;36893;52.520;13.450;2022-07-10T20:53:19;25.40;57.40
49821;DHT22;36893;52.520;13.450;2022-07-10T21:03:20;25.40;57.40
49821;DHT22;36893;52.520;13.450;2022-07-10T21:13:20;25.40;57.30
49821;DHT22;36893;52.520;13.450;2022-07-10T21:23:26;25.30;57.30
49821;DHT22;36893;52.520;13.450;2022-07-10T21:33:26;25.30;57.30
49821;DHT22;36893;52.520;13.450;2022-07-10T21:43:27;25.30;57.30
49821;DHT22;36893;52.520;13.450;2022-07-10T21:53:28;25.30;57.30
49821;DHT22;36893;52.520;13.450;2022-07-10T22:03:28;25.30;57.30
49821;DHT22;36893;52.520;13.450;2022-07-10T22:13:29;25.30;57.30
49821;DHT22;36893;52.520;13.450;2022-07-10T22:23:30;25.30;57.30
49821;DHT22;36893;52.520;13.450;2022-07-10T22:33:30;25.30;57.30
49821;DHT22;36893;52.520;13.450;2022-07-10T22:43:31;25.30;57.30
49821;DHT22;36893;52.520;13.450;2022-07-10T22:53:32;25.30;57.30
49821;DHT22;36893;52.520;13.450;2022-07-10T23:03:33;25.30;57.30
49821;DHT22;36893;52.520;13.450;2022-07-10T23:13:34;25.30;57.30
49821;DHT22;36893;52.520;13.450;2022-07-10T23:23:34;25.30;57.30
49821;DHT22;36893;52.520;13.450;2022-07-10T23:33:35;25.30;57.30
49821;DHT22;36893;52.520;13.450;2022-07-10T23:43:36;25.30;57.30
49821;DHT22;36893;52.520;13.450;2022-07-10T23:53:37;25.30;57.30
